Terminal Aerodrome Forecast
Issued by NWS

Home | Current Version | Previous Version | Text Only | Print | Product List | Glossary On
Versions: 1 2 3 4 5 6 7 8 9 10 11 12 13 14 15
000
FTUS46 KSGX 101725
TAFCRQ
TAF
KCRQ 101725Z 1018/1118 22006KT 4SM BR BKN015
      TEMPO 1021/1023 SCT015
     FM110100 VRB05KT P6SM -DZ OVC012=

USA.gov is the U.S. government's official web portal to all federal, state and local government web resources and services.